Time;durP1;ratioP1;P1;durP2;ratioP2;P2;SDS_P1;SDS_P2;PMS_P1;PMS_P2;Temp;Humidity;BMP_temperature;BMP_pressure;BME280_temperature;BME280_humidity;BME280_pressure;Samples;Min_cycle;Max_cycle;Signal;HPM_P1;HPM_P2
2023/04/01 00:01:03;;;;;;;10.43;7.20;;;;;;;14.18;42.60;94037.13;4970632;28;20216;-67
2023/04/01 00:03:29;;;;;;;12.52;6.60;;;;;;;14.12;42.87;94041.38;4972062;28;20224;-67
2023/04/01 00:05:56;;;;;;;14.13;7.45;;;;;;;14.17;43.02;94050.56;4973276;28;20263;-66
2023/04/01 00:08:22;;;;;;;15.57;10.30;;;;;;;14.09;43.02;94033.84;4974198;28;20280;-66
2023/04/01 00:10:48;;;;;;;21.73;11.88;;;;;;;14.06;43.17;94052.75;4983060;28;20259;-66
2023/04/01 00:13:14;;;;;;;17.88;12.68;;;;;;;14.08;42.66;94047.25;4972218;28;20263;-66
2023/04/01 00:15:40;;;;;;;18.40;13.63;;;;;;;13.99;42.80;94056.34;4972159;28;20650;-66
2023/04/01 00:18:06;;;;;;;15.52;10.48;;;;;;;13.94;42.75;94049.00;4967873;28;20219;-66
2023/04/01 00:20:31;;;;;;;16.02;11.88;;;;;;;13.86;42.51;94049.97;4969957;28;20189;-67
2023/04/01 00:22:57;;;;;;;20.33;10.93;;;;;;;13.85;42.54;94050.19;4971640;28;20194;-66
2023/04/01 00:25:23;;;;;;;14.77;10.43;;;;;;;13.84;42.54;94059.13;4998140;28;20658;-66
2023/04/01 00:27:49;;;;;;;16.52;10.93;;;;;;;13.77;42.84;94055.63;4973506;28;20220;-66
2023/04/01 00:30:15;;;;;;;12.90;9.85;;;;;;;13.73;43.18;94051.75;4970002;28;20267;-65
2023/04/01 00:32:40;;;;;;;14.38;10.07;;;;;;;13.62;43.59;94050.47;5000653;28;20243;-64
2023/04/01 00:35:06;;;;;;;16.10;9.43;;;;;;;13.68;43.41;94052.31;4970710;28;20208;-64
2023/04/01 00:37:35;;;;;;;17.88;10.68;;;;;;;13.75;43.25;94047.91;4971089;28;20769;-67
2023/04/01 00:40:00;;;;;;;14.50;9.95;;;;;;;13.67;43.51;94038.31;4969357;28;20709;-67
2023/04/01 00:42:26;;;;;;;12.48;9.00;;;;;;;13.63;44.60;94037.06;5001268;28;20235;-67
2023/04/01 00:44:53;;;;;;;16.90;9.50;;;;;;;13.61;44.81;94028.53;4997922;28;20247;-67
2023/04/01 00:47:19;;;;;;;14.20;10.40;;;;;;;13.60;45.11;94032.16;4970286;28;20272;-67
2023/04/01 00:49:48;;;;;;;13.98;9.43;;;;;;;13.60;45.79;94020.78;4971604;28;20266;-67
2023/04/01 00:52:17;;;;;;;13.70;9.50;;;;;;;13.55;47.27;94007.34;4969912;28;20232;-67
2023/04/01 00:54:46;;;;;;;14.27;9.45;;;;;;;13.50;47.04;94007.09;5004588;28;20226;-67
2023/04/01 00:57:26;;;;;;;10.65;8.63;;;;;;;13.46;47.23;94014.59;4972428;28;20579;-67
2023/04/01 00:59:54;;;;;;;13.38;9.65;;;;;;;13.44;46.99;94011.34;4968173;28;20223;-67
2023/04/01 01:02:20;;;;;;;12.70;8.57;;;;;;;13.45;46.49;94005.06;4963842;28;20184;-67
2023/04/01 01:04:46;;;;;;;9.93;7.32;;;;;;;13.44;45.82;94006.06;4967484;28;20216;-67
2023/04/01 01:07:12;;;;;;;9.85;7.20;;;;;;;13.40;45.46;93995.06;4998707;28;20235;-66
2023/04/01 01:09:55;;;;;;;12.20;7.13;;;;;;;13.30;45.26;93994.59;4970464;28;20228;-67
2023/04/01 01:12:30;;;;;;;12.63;7.53;;;;;;;13.25;45.28;94005.69;4967124;28;20232;-65
2023/04/01 01:15:21;;;;;;;12.15;7.40;;;;;;;13.22;45.16;93987.59;4964581;28;20223;-65
2023/04/01 01:17:58;;;;;;;8.48;6.93;;;;;;;13.12;45.06;93981.84;4969140;28;20180;-66
2023/04/01 01:20:42;;;;;;;11.13;7.07;;;;;;;13.23;44.80;93978.69;4983529;28;20184;-66
2023/04/01 01:23:36;;;;;;;9.95;5.90;;;;;;;13.18;44.82;93973.19;4969067;28;20232;-66
2023/04/01 01:26:39;;;;;;;8.75;6.32;;;;;;;13.21;44.66;93964.88;4969802;28;20287;-65
2023/04/01 01:29:23;;;;;;;11.23;6.60;;;;;;;13.25;44.29;93971.38;5003942;28;20216;-65
2023/04/01 01:32:18;;;;;;;9.45;6.13;;;;;;;13.21;44.47;93969.34;4964330;28;20235;-65
2023/04/01 01:34:49;;;;;;;7.90;6.10;;;;;;;13.16;44.76;93954.06;4986130;28;20318;-63
2023/04/01 01:37:17;;;;;;;10.70;6.20;;;;;;;13.14;45.07;93939.44;5002280;28;20216;-63
2023/04/01 01:39:47;;;;;;;8.82;6.38;;;;;;;13.23;44.42;93952.31;4970940;28;20409;-65
2023/04/01 01:42:15;;;;;;;9.45;5.78;;;;;;;13.22;44.38;93955.94;4976298;28;20242;-66
2023/04/01 01:44:44;;;;;;;8.85;5.97;;;;;;;13.24;44.41;93959.19;4970843;28;20184;-66
2023/04/01 01:47:11;;;;;;;10.77;6.68;;;;;;;13.19;44.51;93951.03;5002633;28;20188;-63
2023/04/01 01:49:38;;;;;;;9.73;5.78;;;;;;;13.18;44.41;93949.44;4994329;28;20217;-63
2023/04/01 01:52:04;;;;;;;9.85;5.07;;;;;;;13.15;43.81;93944.53;5002015;28;20224;-63
2023/04/01 01:54:30;;;;;;;10.90;5.72;;;;;;;13.18;43.94;93936.22;4972186;28;20228;-63
2023/04/01 01:57:05;;;;;;;10.27;5.35;;;;;;;13.17;44.25;93928.50;4978184;28;20227;-63
2023/04/01 01:59:35;;;;;;;9.00;5.32;;;;;;;13.23;43.85;93939.09;4972751;28;20195;-63
2023/04/01 02:02:07;;;;;;;8.88;5.05;;;;;;;13.21;44.11;93921.81;4971571;28;21524;-63
2023/04/01 02:04:39;;;;;;;10.40;5.55;;;;;;;13.20;43.92;93926.28;4971683;28;20223;-63
2023/04/01 02:07:08;;;;;;;10.15;5.20;;;;;;;13.22;43.88;93928.72;4968135;28;20288;-63
2023/04/01 02:09:34;;;;;;;9.18;5.35;;;;;;;13.22;43.62;93924.25;5000859;28;20228;-63
2023/04/01 02:12:07;;;;;;;11.10;5.25;;;;;;;13.06;44.71;93924.56;5002862;28;20311;-63
2023/04/01 02:14:49;;;;;;;9.35;6.03;;;;;;;13.05;44.89;93912.41;5001167;28;20234;-63
2023/04/01 02:17:27;;;;;;;8.63;4.80;;;;;;;12.64;45.35;93913.09;4968507;28;20274;-62
2023/04/01 02:19:59;;;;;;;9.02;4.88;;;;;;;12.97;44.03;93915.19;4968700;28;20299;-63
2023/04/01 02:22:29;;;;;;;8.00;4.93;;;;;;;13.06;44.50;93913.19;4970419;28;20212;-63
2023/04/01 02:24:59;;;;;;;12.32;5.78;;;;;;;12.98;45.04;93912.34;4965195;28;21579;-63
2023/04/01 02:27:25;;;;;;;8.30;5.45;;;;;;;13.13;44.34;93909.59;4961704;28;20299;-65
2023/04/01 02:29:52;;;;;;;11.82;5.28;;;;;;;13.05;44.83;93907.13;4981340;28;20224;-64
2023/04/01 02:32:20;;;;;;;11.00;5.57;;;;;;;13.10;44.84;93903.91;4970184;28;20247;-67
2023/04/01 02:34:46;;;;;;;9.45;5.22;;;;;;;13.03;44.82;93917.84;4963106;28;20323;-66
2023/04/01 02:37:12;;;;;;;10.68;5.25;;;;;;;12.69;45.30;93916.00;4966032;28;20231;-67
2023/04/01 02:39:38;;;;;;;9.57;5.55;;;;;;;12.95;44.99;93912.72;4971039;28;20220;-66
2023/04/01 02:42:04;;;;;;;8.70;4.47;;;;;;;12.93;44.89;93914.72;4973311;28;20224;-66
2023/04/01 02:44:29;;;;;;;7.95;4.40;;;;;;;13.00;44.25;93920.88;4971357;28;20188;-66
2023/04/01 02:46:55;;;;;;;7.72;4.43;;;;;;;12.94;43.87;93911.09;4964479;28;20315;-66
2023/04/01 02:49:21;;;;;;;8.68;5.07;;;;;;;12.97;44.12;93928.38;4965734;28;20228;-66
2023/04/01 02:51:46;;;;;;;7.22;5.22;;;;;;;12.82;45.12;93941.66;4970647;28;20228;-65
2023/04/01 02:54:12;;;;;;;7.95;4.25;;;;;;;12.90;43.97;93922.22;4999226;28;20223;-66
2023/04/01 02:56:37;;;;;;;9.23;4.82;;;;;;;13.01;43.96;93932.25;4971826;28;20196;-66
2023/04/01 02:59:03;;;;;;;7.50;4.63;;;;;;;12.92;44.45;93923.66;4975737;28;20192;-65
2023/04/01 03:01:28;;;;;;;9.55;5.38;;;;;;;13.06;44.41;93935.13;4971979;28;20227;-65
2023/04/01 03:03:54;;;;;;;9.75;5.00;;;;;;;12.92;44.87;93950.06;4998346;28;20224;-65
2023/04/01 03:06:19;;;;;;;7.50;4.65;;;;;;;12.99;44.06;93950.94;4995841;28;20230;-65
2023/04/01 03:08:46;;;;;;;6.63;4.25;;;;;;;12.98;44.49;93941.34;4969040;28;20185;-66
2023/04/01 03:11:11;;;;;;;9.98;5.60;;;;;;;12.99;44.64;93955.38;4970974;28;20588;-66
2023/04/01 03:13:37;;;;;;;10.23;5.10;;;;;;;12.97;44.65;93967.97;4968247;28;20243;-65
2023/04/01 03:16:02;;;;;;;7.00;4.90;;;;;;;12.69;45.41;93958.19;4968864;28;20254;-65
2023/04/01 03:18:28;;;;;;;13.60;4.90;;;;;;;12.72;44.94;93949.91;5001702;28;20220;-65
2023/04/01 03:20:54;;;;;;;11.38;5.25;;;;;;;12.81;44.87;93942.69;4969706;28;20228;-65
2023/04/01 03:23:20;;;;;;;8.35;5.05;;;;;;;12.93;44.56;93950.88;4996881;28;20177;-65
2023/04/01 03:25:46;;;;;;;7.60;5.22;;;;;;;12.96;44.86;93963.66;4969577;28;20251;-65
2023/04/01 03:28:13;;;;;;;6.75;4.75;;;;;;;12.95;45.50;93962.06;4970457;28;20341;-68
2023/04/01 03:30:38;;;;;;;7.45;5.32;;;;;;;13.06;45.81;93968.63;4968594;28;20734;-65
2023/04/01 03:33:04;;;;;;;8.48;5.63;;;;;;;12.90;45.82;93959.97;4964741;28;20311;-65
2023/04/01 03:35:29;;;;;;;11.88;5.90;;;;;;;13.00;45.97;93959.66;4968234;28;20731;-65
2023/04/01 03:37:55;;;;;;;9.77;6.05;;;;;;;12.79;46.88;93966.59;4962657;28;20232;-67
2023/04/01 03:40:21;;;;;;;11.10;6.03;;;;;;;12.88;47.39;93969.09;4969128;28;20208;-66
2023/04/01 03:42:47;;;;;;;14.23;7.00;;;;;;;12.87;47.83;93963.00;4968809;28;20221;-65
2023/04/01 03:45:12;;;;;;;9.20;6.15;;;;;;;12.88;47.23;93942.72;4969599;28;20220;-65
2023/04/01 03:47:39;;;;;;;9.38;5.90;;;;;;;12.79;47.71;93940.22;4967649;28;20184;-65
2023/04/01 03:50:05;;;;;;;11.35;6.47;;;;;;;12.78;47.88;93920.13;4968252;28;20186;-65
2023/04/01 03:52:31;;;;;;;10.65;7.00;;;;;;;12.78;47.79;93912.22;4968787;28;20311;-65
2023/04/01 03:54:56;;;;;;;11.40;6.88;;;;;;;12.87;47.74;93898.88;4994348;28;20224;-65
2023/04/01 03:57:22;;;;;;;12.30;6.60;;;;;;;12.93;47.66;93890.19;4968874;28;20325;-65
2023/04/01 03:59:48;;;;;;;11.38;6.95;;;;;;;12.83;47.54;93869.44;4974611;28;20192;-66
2023/04/01 04:02:13;;;;;;;8.43;6.13;;;;;;;12.87;47.32;93857.47;4972377;28;20200;-64
2023/04/01 04:04:39;;;;;;;12.00;6.22;;;;;;;12.87;47.40;93852.19;4998616;28;20216;-66
2023/04/01 04:07:05;;;;;;;8.90;5.78;;;;;;;12.87;47.60;93857.47;4995146;28;20222;-66
2023/04/01 04:09:31;;;;;;;9.68;5.72;;;;;;;12.85;46.76;93850.75;5003614;28;20219;-66
2023/04/01 04:11:57;;;;;;;10.38;7.20;;;;;;;12.95;46.52;93849.41;4965148;28;20227;-66
2023/04/01 04:14:23;;;;;;;9.15;6.03;;;;;;;13.05;46.27;93842.97;4996005;28;20584;-65
2023/04/01 04:16:48;;;;;;;12.80;6.75;;;;;;;13.03;46.04;93843.97;4965284;28;20216;-65
2023/04/01 04:19:14;;;;;;;11.20;6.53;;;;;;;13.00;46.12;93838.28;4966859;28;20220;-65
2023/04/01 04:21:41;;;;;;;15.57;7.38;;;;;;;13.02;46.03;93828.34;4964423;28;20230;-65
2023/04/01 04:24:06;;;;;;;13.40;6.75;;;;;;;13.00;45.64;93830.34;4981232;28;20224;-66
2023/04/01 04:26:32;;;;;;;12.55;7.40;;;;;;;12.95;45.51;93830.94;4954178;28;20211;-65
2023/04/01 04:28:57;;;;;;;14.35;7.50;;;;;;;13.05;45.84;93827.13;4996460;28;20192;-65
2023/04/01 04:31:24;;;;;;;13.10;7.25;;;;;;;12.97;45.62;93809.66;4968459;28;20219;-66
2023/04/01 04:33:51;;;;;;;12.50;7.35;;;;;;;13.00;44.89;93809.25;4963607;28;20589;-65
2023/04/01 04:36:17;;;;;;;13.80;6.85;;;;;;;13.03;44.61;93811.50;4996686;28;20228;-65
2023/04/01 04:38:43;;;;;;;12.05;5.97;;;;;;;13.07;44.51;93803.97;4963489;28;20189;-66
2023/04/01 04:41:17;;;;;;;10.07;5.68;;;;;;;13.11;44.01;93799.97;4999043;28;20509;-65
2023/04/01 04:43:55;;;;;;;10.80;5.35;;;;;;;13.12;43.88;93797.09;4977092;28;20216;-65
2023/04/01 04:46:21;;;;;;;9.73;5.18;;;;;;;13.13;43.48;93784.75;4973575;28;20275;-66
2023/04/01 04:48:47;;;;;;;8.57;5.53;;;;;;;13.12;43.42;93781.25;4983683;28;20225;-65
2023/04/01 04:51:18;;;;;;;7.60;5.43;;;;;;;13.14;43.59;93796.91;4984434;28;20268;-65
2023/04/01 04:53:44;;;;;;;10.25;5.88;;;;;;;13.07;43.60;93775.78;4973995;28;20215;-65
2023/04/01 04:56:09;;;;;;;10.27;5.80;;;;;;;12.92;43.93;93775.13;5000396;28;20200;-65
2023/04/01 04:58:36;;;;;;;10.07;5.43;;;;;;;12.76;44.45;93763.06;4970575;28;20220;-66
2023/04/01 05:01:10;;;;;;;10.40;6.43;;;;;;;12.80;44.70;93773.03;4998030;28;20709;-65
2023/04/01 05:03:36;;;;;;;9.40;6.47;;;;;;;12.88;44.79;93787.06;4969513;28;20734;-65
2023/04/01 05:06:02;;;;;;;10.20;6.32;;;;;;;12.57;45.53;93778.59;4969227;28;20223;-67
2023/04/01 05:08:27;;;;;;;10.18;6.15;;;;;;;12.75;45.15;93771.97;5000570;28;20192;-65
2023/04/01 05:10:53;;;;;;;10.60;6.15;;;;;;;12.74;45.28;93775.63;4971463;28;20228;-68
2023/04/01 05:13:18;;;;;;;10.52;6.53;;;;;;;12.67;45.04;93761.59;5000249;28;20256;-66
2023/04/01 05:15:44;;;;;;;10.85;6.47;;;;;;;12.65;45.38;93759.16;4966878;28;20274;-66
2023/04/01 05:18:09;;;;;;;10.25;5.68;;;;;;;12.68;45.43;93764.03;4975667;28;20266;-66
2023/04/01 05:20:34;;;;;;;9.18;6.65;;;;;;;12.68;45.53;93753.50;4974986;28;20192;-67
2023/04/01 05:23:00;;;;;;;15.80;7.10;;;;;;;12.59;45.92;93746.75;5000753;28;20259;-68
2023/04/01 05:25:26;;;;;;;12.23;6.45;;;;;;;12.61;46.18;93752.63;5004572;28;20224;-68
2023/04/01 05:27:51;;;;;;;14.88;6.70;;;;;;;12.55;45.88;93741.03;4971062;28;20225;-65
2023/04/01 05:30:17;;;;;;;10.57;6.07;;;;;;;12.55;45.62;93727.84;5000800;28;20231;-65
2023/04/01 05:32:43;;;;;;;16.65;7.00;;;;;;;12.56;45.94;93736.56;4970224;28;20185;-66
2023/04/01 05:35:09;;;;;;;13.95;6.93;;;;;;;12.66;45.99;93750.22;4970671;28;20574;-66
2023/04/01 05:37:35;;;;;;;15.32;6.70;;;;;;;12.70;45.61;93746.19;4970672;28;20604;-65
2023/04/01 05:40:01;;;;;;;12.20;7.13;;;;;;;12.68;45.61;93731.59;4969162;28;20217;-68
2023/04/01 05:42:27;;;;;;;11.90;5.57;;;;;;;12.62;45.91;93753.47;4996839;28;20259;-66
2023/04/01 05:44:52;;;;;;;10.98;6.03;;;;;;;12.46;45.88;93744.88;4964465;28;20220;-67
2023/04/01 05:47:18;;;;;;;13.57;7.05;;;;;;;12.65;45.67;93742.53;4968653;28;20303;-68
2023/04/01 05:49:43;;;;;;;13.35;6.85;;;;;;;12.36;46.31;93734.66;4972223;28;20228;-66
2023/04/01 05:52:08;;;;;;;10.63;6.18;;;;;;;12.60;46.14;93744.94;4972470;28;20730;-67
2023/04/01 05:54:34;;;;;;;10.40;5.82;;;;;;;12.80;45.36;93730.00;4993542;28;20229;-67
2023/04/01 05:56:59;;;;;;;11.85;6.30;;;;;;;12.96;44.85;93726.19;5002728;28;20938;-67
2023/04/01 05:59:25;;;;;;;9.60;5.60;;;;;;;13.11;44.75;93733.97;4967013;28;20180;-67
2023/04/01 06:01:51;;;;;;;14.25;5.65;;;;;;;13.32;43.86;93723.31;4963582;28;20582;-65
2023/04/01 06:04:17;;;;;;;9.70;5.40;;;;;;;13.55;42.63;93715.03;4971199;28;20220;-67
2023/04/01 06:06:43;;;;;;;8.45;5.20;;;;;;;13.77;42.70;93709.53;4970998;28;20227;-67
2023/04/01 06:09:25;;;;;;;7.68;5.10;;;;;;;13.69;42.69;93713.19;4963788;28;20224;-67
2023/04/01 06:12:05;;;;;;;9.20;5.50;;;;;;;13.89;42.34;93726.41;4970912;28;20627;-67
2023/04/01 06:14:46;;;;;;;11.35;5.05;;;;;;;13.97;41.79;93730.66;4966658;28;20192;-66
2023/04/01 06:17:43;;;;;;;8.55;5.20;;;;;;;14.06;40.88;93721.50;4966936;28;20177;-67
2023/04/01 06:20:46;;;;;;;9.82;5.45;;;;;;;13.77;41.90;93720.13;4996953;28;20224;-66
2023/04/01 06:23:56;;;;;;;11.57;6.00;;;;;;;13.97;41.70;93705.03;4997800;28;20212;-67
2023/04/01 06:26:21;;;;;;;8.13;4.78;;;;;;;14.11;40.98;93711.97;4946684;28;20311;-67
2023/04/01 06:28:53;;;;;;;11.32;4.18;;;;;;;14.27;40.74;93716.00;4954378;28;20224;-67
2023/04/01 06:31:18;;;;;;;10.38;4.60;;;;;;;14.49;39.70;93711.28;4953899;28;20228;-67
2023/04/01 06:34:17;;;;;;;6.82;4.20;;;;;;;14.00;41.04;93709.13;4952366;28;20330;-66
2023/04/01 06:36:55;;;;;;;7.80;4.40;;;;;;;13.84;41.49;93705.84;4952604;28;20263;-65
2023/04/01 06:39:42;;;;;;;10.10;4.20;;;;;;;14.06;41.07;93710.94;4950380;28;20224;-63
2023/04/01 06:42:32;;;;;;;8.55;4.60;;;;;;;14.00;41.15;93704.63;4953884;28;20274;-64
2023/04/01 06:45:54;;;;;;;7.65;5.60;;;;;;;14.42;40.58;93691.97;4949940;28;20248;-64
2023/04/01 06:48:29;;;;;;;8.43;6.75;;;;;;;14.16;41.57;93684.09;4965304;28;20735;-64
2023/04/01 06:51:00;;;;;;;9.57;6.75;;;;;;;14.32;41.54;93681.81;4954786;28;20238;-64
2023/04/01 06:53:44;;;;;;;9.65;5.85;;;;;;;14.33;41.76;93686.09;4956523;28;20204;-64
2023/04/01 06:56:14;;;;;;;8.23;5.93;;;;;;;14.27;42.22;93689.56;4954742;28;20228;-65
2023/04/01 06:58:52;;;;;;;9.40;5.65;;;;;;;14.43;42.02;93680.34;4958387;28;20316;-64
2023/04/01 07:01:27;;;;;;;10.90;5.88;;;;;;;14.41;42.30;93674.47;4956848;28;20219;-66
2023/04/01 07:03:56;;;;;;;7.68;4.97;;;;;;;14.37;42.49;93662.69;4926339;28;20227;-65
2023/04/01 07:06:40;;;;;;;7.25;5.13;;;;;;;14.13;43.20;93659.69;4949273;28;20244;-65
2023/04/01 07:09:17;;;;;;;7.50;5.07;;;;;;;14.26;43.46;93676.53;4931594;28;20236;-65
2023/04/01 07:11:43;;;;;;;14.90;4.97;;;;;;;14.39;43.00;93671.22;4946602;28;20196;-63
2023/04/01 07:14:35;;;;;;;8.73;5.80;;;;;;;14.53;43.11;93674.66;4934740;29;20197;-64
2023/04/01 07:17:12;;;;;;;7.13;4.80;;;;;;;14.61;42.94;93657.75;4946819;28;20324;-64
2023/04/01 07:19:47;;;;;;;10.32;5.43;;;;;;;14.68;42.74;93653.25;4954442;28;20216;-64
2023/04/01 07:22:18;;;;;;;12.68;5.07;;;;;;;14.75;42.56;93664.59;4993102;28;20227;-64
2023/04/01 07:24:45;;;;;;;13.13;4.53;;;;;;;14.72;42.73;93670.31;4980080;28;20234;-65
2023/04/01 07:27:13;;;;;;;8.38;4.63;;;;;;;14.65;42.59;93659.78;5000687;28;20219;-65
2023/04/01 07:29:40;;;;;;;6.13;4.57;;;;;;;14.06;44.40;93658.91;4957270;28;20199;-65
2023/04/01 07:32:17;;;;;;;7.88;4.78;;;;;;;14.32;44.20;93679.16;4955075;28;20196;-65
2023/04/01 07:34:42;;;;;;;12.32;4.97;;;;;;;14.55;43.61;93660.22;4956065;28;20228;-66
2023/04/01 07:37:20;;;;;;;7.65;4.57;;;;;;;14.72;43.20;93670.31;4989769;28;20268;-65
2023/04/01 07:39:54;;;;;;;9.88;4.72;;;;;;;14.49;44.33;93679.53;4969969;28;20236;-64
2023/04/01 07:42:39;;;;;;;8.35;4.70;;;;;;;14.65;43.78;93680.09;4954831;28;20230;-66
2023/04/01 07:45:19;;;;;;;8.77;5.18;;;;;;;14.78;43.32;93665.00;4952861;28;20223;-67
2023/04/01 07:47:45;;;;;;;9.00;4.93;;;;;;;14.79;43.31;93660.53;4957423;28;20275;-66
2023/04/01 07:50:28;;;;;;;12.77;5.38;;;;;;;14.77;43.55;93646.69;4964364;28;20279;-67
2023/04/01 07:53:00;;;;;;;13.23;4.50;;;;;;;14.78;43.84;93641.19;4955430;28;20239;-66
2023/04/01 07:55:34;;;;;;;10.27;4.82;;;;;;;14.74;44.28;93657.69;4992493;28;20231;-66
2023/04/01 07:58:14;;;;;;;9.30;4.63;;;;;;;14.77;44.17;93657.28;4987802;28;20233;-65
2023/04/01 08:00:56;;;;;;;11.75;4.53;;;;;;;14.66;44.33;93661.38;4959710;28;20220;-66
2023/04/01 08:03:31;;;;;;;11.02;5.35;;;;;;;14.60;44.41;93661.44;4954924;28;20217;-66
2023/04/01 08:06:38;;;;;;;12.30;5.00;;;;;;;14.65;44.45;93662.44;4986158;28;20587;-66
2023/04/01 08:09:43;;;;;;;9.48;5.00;;;;;;;14.54;44.20;93642.72;4953716;28;20216;-66
2023/04/01 08:12:31;;;;;;;6.45;4.53;;;;;;;14.82;43.70;93628.34;4945122;28;20329;-66
2023/04/01 08:15:11;;;;;;;7.55;4.57;;;;;;;14.94;43.92;93631.97;4932534;28;20271;-66
2023/04/01 08:17:44;;;;;;;7.90;4.57;;;;;;;15.07;43.30;93615.16;4929443;28;20235;-66
2023/04/01 08:20:12;;;;;;;7.53;5.00;;;;;;;15.27;42.98;93636.22;4970307;28;20188;-66
2023/04/01 08:23:25;;;;;;;10.32;4.85;;;;;;;15.34;42.62;93618.47;4934560;28;20221;-66
2023/04/01 08:26:08;;;;;;;9.77;5.15;;;;;;;15.31;42.81;93605.63;4899909;29;20242;-66
2023/04/01 08:28:40;;;;;;;8.00;4.35;;;;;;;15.57;42.35;93595.88;4896989;29;20254;-66
2023/04/01 08:31:11;;;;;;;10.93;4.60;;;;;;;15.64;41.85;93605.38;4913050;29;20222;-66
2023/04/01 08:33:38;;;;;;;9.52;4.47;;;;;;;15.83;41.53;93585.06;4913810;29;20237;-66
2023/04/01 08:36:03;;;;;;;9.48;4.65;;;;;;;15.96;41.08;93573.50;4894486;29;20242;-66
2023/04/01 08:38:32;;;;;;;9.38;4.28;;;;;;;15.84;41.54;93562.81;4898025;29;20230;-66
2023/04/01 08:41:34;;;;;;;7.57;4.32;;;;;;;15.89;41.88;93572.75;4909940;29;20222;-66
2023/04/01 08:44:23;;;;;;;7.93;4.20;;;;;;;15.82;41.42;93550.81;4891018;29;20317;-66
2023/04/01 08:47:30;;;;;;;10.02;4.20;;;;;;;15.85;41.72;93559.16;4890738;29;20261;-67
2023/04/01 08:50:23;;;;;;;8.88;4.07;;;;;;;15.94;41.08;93545.59;4888446;29;20226;-66
2023/04/01 08:53:27;;;;;;;7.18;3.50;;;;;;;15.59;41.66;93548.78;4906944;29;20327;-67
2023/04/01 08:56:14;;;;;;;7.57;4.18;;;;;;;15.68;41.36;93546.66;4911055;29;20313;-66
2023/04/01 08:58:59;;;;;;;12.05;4.53;;;;;;;15.89;41.01;93535.66;4910981;29;20250;-67
2023/04/01 09:01:55;;;;;;;11.25;4.43;;;;;;;16.17;40.48;93563.47;4938430;29;20222;-66
2023/04/01 09:04:54;;;;;;;7.72;4.28;;;;;;;16.23;39.84;93565.28;4941871;28;20231;-65
2023/04/01 09:07:35;;;;;;;12.23;4.38;;;;;;;16.37;39.83;93540.19;4945606;28;20233;-65
2023/04/01 09:10:15;;;;;;;10.23;3.92;;;;;;;16.54;39.25;93543.03;4942614;28;20842;-65
2023/04/01 09:12:59;;;;;;;9.20;4.25;;;;;;;16.64;39.10;93548.63;4930141;28;20656;-66
2023/04/01 09:15:52;;;;;;;8.07;3.53;;;;;;;16.75;38.65;93542.53;4944042;28;20221;-65
2023/04/01 09:18:36;;;;;;;7.28;3.92;;;;;;;16.90;38.13;93536.84;4941073;28;20221;-65
2023/04/01 09:21:25;;;;;;;7.38;3.72;;;;;;;17.01;37.56;93535.28;4943278;28;20221;-65
2023/04/01 09:24:00;;;;;;;13.05;3.40;;;;;;;17.08;37.49;93530.69;4942307;28;20324;-65
2023/04/01 09:26:28;;;;;;;10.23;3.70;;;;;;;17.17;37.29;93534.59;4942897;29;20196;-66
2023/04/01 09:29:08;;;;;;;11.25;3.78;;;;;;;17.24;36.59;93523.91;4933158;28;20222;-64
2023/04/01 09:31:36;;;;;;;10.88;3.60;;;;;;;17.31;35.62;93518.44;4939244;28;20284;-65
2023/04/01 09:34:05;;;;;;;5.82;3.00;;;;;;;17.46;35.11;93510.03;4959147;28;20620;-67
2023/04/01 09:36:50;;;;;;;8.35;3.50;;;;;;;17.57;34.50;93502.06;4963064;28;20232;-66
2023/04/01 09:39:26;;;;;;;8.20;3.20;;;;;;;17.64;33.96;93502.75;4955459;28;20228;-66
2023/04/01 09:42:00;;;;;;;8.57;3.42;;;;;;;17.76;33.72;93504.59;4989701;28;20220;-65
2023/04/01 09:44:46;;;;;;;9.57;3.28;;;;;;;17.90;34.10;93502.53;4958689;28;20183;-68
2023/04/01 09:47:21;;;;;;;7.93;3.30;;;;;;;17.91;33.54;93486.34;4988875;28;20223;-66
2023/04/01 09:50:19;;;;;;;9.38;3.10;;;;;;;17.82;33.82;93487.72;4959110;28;20223;-65
2023/04/01 09:53:21;;;;;;;5.45;3.05;;;;;;;17.76;33.52;93473.50;4960672;28;20283;-65
2023/04/01 09:55:55;;;;;;;7.13;3.00;;;;;;;17.68;33.67;93467.75;4982089;28;20284;-63
2023/04/01 09:58:36;;;;;;;4.53;2.83;;;;;;;17.83;33.71;93466.25;4996516;28;20218;-65
2023/04/01 10:01:43;;;;;;;6.97;2.92;;;;;;;17.88;33.02;93454.06;4979969;28;20218;-62
2023/04/01 10:04:26;;;;;;;5.00;2.50;;;;;;;17.94;33.73;93463.81;4942441;29;20263;-63
2023/04/01 10:07:42;;;;;;;5.95;2.70;;;;;;;17.91;33.72;93459.75;4927920;29;20376;-66
2023/04/01 10:10:26;;;;;;;5.78;2.80;;;;;;;18.17;33.57;93462.91;4868905;29;20659;-64
2023/04/01 10:13:10;;;;;;;3.70;2.42;;;;;;;18.07;33.33;93443.06;4853086;29;20231;-65
2023/04/01 10:16:23;;;;;;;9.88;2.85;;;;;;;18.16;33.63;93451.47;4869562;29;20368;-65
2023/04/01 10:18:57;;;;;;;7.05;2.58;;;;;;;18.10;33.75;93454.28;4797389;29;20245;-66
2023/04/01 10:21:31;;;;;;;6.00;2.85;;;;;;;18.12;33.98;93441.53;4813639;29;20229;-65
2023/04/01 10:24:05;;;;;;;8.63;2.58;;;;;;;18.44;34.10;93440.03;4811385;29;20239;-65
2023/04/01 10:26:43;;;;;;;5.53;2.90;;;;;;;18.71;33.90;93434.91;4811793;29;20261;-65
2023/04/01 10:29:33;;;;;;;6.32;3.50;;;;;;;18.85;33.21;93443.41;4809832;29;20199;-65
2023/04/01 10:32:13;;;;;;;10.00;2.88;;;;;;;18.98;32.98;93444.13;4804685;29;20242;-66
2023/04/01 10:34:39;;;;;;;5.82;3.20;;;;;;;18.95;32.90;93450.75;4776989;29;20257;-65
2023/04/01 10:37:55;;;;;;;7.80;3.50;;;;;;;19.02;32.87;93429.31;4776920;29;20299;-66
2023/04/01 10:40:32;;;;;;;5.07;3.15;;;;;;;18.98;32.79;93423.66;4853265;29;20236;-64
2023/04/01 10:43:10;;;;;;;5.22;3.22;;;;;;;18.86;32.99;93430.91;4852479;29;20231;-65
2023/04/01 10:46:01;;;;;;;7.50;3.38;;;;;;;18.70;33.16;93411.97;4867908;29;20230;-65
2023/04/01 10:48:29;;;;;;;7.68;3.33;;;;;;;18.83;33.55;93418.88;4888183;29;20218;-65
2023/04/01 10:51:11;;;;;;;5.63;3.03;;;;;;;18.69;33.73;93418.38;4905672;29;20229;-65
2023/04/01 10:54:23;;;;;;;4.13;2.72;;;;;;;18.77;32.98;93419.06;4889876;29;20190;-65
2023/04/01 10:57:10;;;;;;;7.90;3.72;;;;;;;18.80;32.97;93397.25;4944589;28;20235;-65
2023/04/01 10:59:44;;;;;;;8.43;3.20;;;;;;;18.65;33.42;93387.13;4944540;28;20579;-66
2023/04/01 11:02:41;;;;;;;6.72;3.10;;;;;;;18.61;33.84;93386.81;4946490;28;20203;-66
2023/04/01 11:05:18;;;;;;;4.35;3.20;;;;;;;18.65;33.83;93387.13;4955493;28;20243;-65
2023/04/01 11:07:52;;;;;;;9.43;3.38;;;;;;;18.58;33.67;93389.97;4958159;28;20224;-66
2023/04/01 11:10:46;;;;;;;6.97;3.60;;;;;;;18.83;33.01;93386.13;4941917;28;20216;-65
2023/04/01 11:13:30;;;;;;;6.82;3.20;;;;;;;18.39;34.04;93377.91;4939650;28;20224;-65
2023/04/01 11:16:14;;;;;;;8.35;3.38;;;;;;;18.45;33.65;93376.97;4918220;29;20245;-65
2023/04/01 11:18:54;;;;;;;7.57;4.00;;;;;;;17.94;34.27;93370.72;4900821;28;20229;-64
2023/04/01 11:21:31;;;;;;;8.70;3.35;;;;;;;18.00;34.56;93386.53;4900384;29;20224;-64
2023/04/01 11:23:59;;;;;;;7.35;3.47;;;;;;;17.83;33.68;93380.38;4934255;28;20228;-64
2023/04/01 11:26:52;;;;;;;5.68;3.45;;;;;;;17.78;33.97;93404.97;4935823;29;20205;-65
2023/04/01 11:29:41;;;;;;;6.68;2.60;;;;;;;17.59;31.69;93401.66;4931312;29;20229;-64
2023/04/01 11:32:15;;;;;;;7.40;2.45;;;;;;;17.32;31.58;93421.78;4915430;29;20252;-65
2023/04/01 11:35:18;;;;;;;5.68;2.15;;;;;;;17.42;34.01;93456.53;4989654;28;20601;-64
2023/04/01 11:38:07;;;;;;;5.30;2.00;;;;;;;16.92;37.27;93463.09;4960766;28;20217;-65
2023/04/01 11:41:00;;;;;;;3.97;2.00;;;;;;;16.92;37.25;93444.53;4987766;28;20226;-66
2023/04/01 11:43:58;;;;;;;4.32;2.17;;;;;;;16.76;38.31;93471.72;4930204;28;20307;-66
2023/04/01 11:47:00;;;;;;;5.75;1.98;;;;;;;16.80;37.32;93525.97;4930262;28;20222;-66
2023/04/01 11:49:28;;;;;;;4.60;1.88;;;;;;;16.49;42.67;93554.34;4929614;29;20224;-66
2023/04/01 11:52:28;;;;;;;5.43;2.40;;;;;;;16.31;45.23;93589.66;4944378;28;20267;-66
2023/04/01 11:55:12;;;;;;;24.00;3.13;;;;;;;15.73;50.92;93608.59;4916769;29;20249;-66
2023/04/01 11:58:31;;;;;;;8.15;3.03;;;;;;;15.08;54.49;93639.81;4897607;29;20275;-67
2023/04/01 12:01:15;;;;;;;6.53;2.75;;;;;;;14.42;58.60;93647.00;4899348;29;20252;-66
2023/04/01 12:04:16;;;;;;;5.32;2.47;;;;;;;14.40;58.82;93656.16;4905797;29;20264;-64
2023/04/01 12:06:49;;;;;;;7.70;2.60;;;;;;;14.13;60.55;93651.75;4874547;29;20677;-66